Airfield :







YOU CAN JOIN US ON...

 
LOGIN :

Register | Disclaimer

   EN    FR    IT 

 









Legend :    VFR   Marginal VFR   IFR   Intensive IFR   Very Intensive IFR
Visi :
Ceiling :
>= 8 km
>= 3000ft
5 to 8 km
1000 to 3000 ft
1500m to 5 km
500 to 1000 ft
800 to 1500m
200 to 500 ft
< 800m
< 200 ft
Symbols :   Thunderstorms  Fog  Heavy snow  Heavy precipitations  Wind > 20 kt






- Airport Elevation : 215 ft
- IATA code : MSS


KMSS - Massena International Richards Field

CURRENT METAR :
  • 011753Z AUTO 06011KT 10SM OVC037 06/M03 A2994 RMK AO2 SLP144 T00561028 10061 21006 58012

EXPIRED METARs :
  • 011706Z AUTO 04010KT 10SM BKN030 BKN034 06/M02 A2995 RMK AO2 T00561017
  • 011553Z AUTO 05008KT 10SM OVC020 03/M02 A2997 RMK AO2 SLP153 T00281022

TAF KMSS
Valid from the 01 at 18:00 until the 02 at 18:00 UTC


011722Z 0118/0218 03009KT P6SM SCT050
FM020100 VRB03KT P6SM BKN025
FM020200 VRB03KT P6SM VCSH BKN015
FM021400 33007KT P6SM BKN020



MET'MAP, your aeronautical weather chart ! - Copyright ORBIFLY December 2007 - Disclaimer

ORBIFLY MET'MAP TEAM :

Programming & Development : Alexandra Zaïnal
Concept & original design : Baudouin d'Aumeries
Assistance for programming : Marc-Olivier Méhu
Technical & hardware support : Manuel Goepfert

Contact : metmap@orbifly.com




SOURCES & CREDITS :

   NOAA